Norient Star — 9HRV9 — position and weather

sailwx.info

Track history (hours):
 
Tides and Currents Weather Stations Pressure Air Temp Water Temp Dewpoint Dewpoint Depression Visibility Wind Speed Wind Dir Waves Ship Positions

Norient Star

Last reported at 2014-Sep-21 03:32 UTC. Time now 2014-Sep-21 04:10 UTC.
Position N 51°31' E 001°31'.

Length 180 m; draft 6.9 m.

Type: Ship. MMSI: 249434000.

Date/timePositionNaut miles runAvg speedWind from/ knotsBaromVisibWave heightAir tempDewpointWater temp
2014-Sep-21 03:32N 51°31' E 001°31'0 0.0
2014-Sep-21 02:32N 51°31' E 001°31'0 0.0
2014-Sep-21 01:32N 51°31' E 001°32'0 0.0
2014-Sep-21 00:32N 51°31' E 001°32'0 0.0
2014-Sep-20 23:32N 51°31' E 001°32'0 0.1
2014-Sep-20 22:32N 51°31' E 001°31'0 0.1
2014-Sep-20 21:32N 51°31' E 001°31'0 0.0
2014-Sep-20 20:32N 51°31' E 001°31'0 0.0
2014-Sep-20 19:32N 51°31' E 001°31'0 0.0
2014-Sep-20 18:32N 51°31' E 001°31'0 0.0
2014-Sep-20 17:32N 51°31' E 001°31'0 0.0
2014-Sep-20 16:32N 51°31' E 001°31'0 0.0
2014-Sep-20 15:32N 51°31' E 001°31'0 0.0
2014-Sep-20 14:32N 51°31' E 001°32'0 0.0
2014-Sep-20 13:32N 51°31' E 001°32'0 0.1
2014-Sep-20 12:32N 51°31' E 001°32'0 0.0
2014-Sep-20 11:32N 51°31' E 001°32'0 0.1
2014-Sep-20 10:32N 51°31' E 001°31'0 0.1
2014-Sep-20 09:32N 51°31' E 001°31'0 0.0
2014-Sep-20 08:32N 51°31' E 001°31'0 0.0
2014-Sep-20 07:32N 51°31' E 001°31'0 0.0
2014-Sep-20 06:32N 51°31' E 001°31'0 0.0
2014-Sep-20 05:32N 51°31' E 001°31'0 0.0
2014-Sep-20 04:30N 51°31' E 001°31'0 0.0
2014-Sep-20 03:32N 51°31' E 001°31'0 0.0
2014-Sep-20 02:32N 51°31' E 001°31'0 0.1
2014-Sep-20 01:26N 51°31' E 001°32'0 0.0
2014-Sep-20 00:32N 51°31' E 001°32'0 0.0
2014-Sep-19 23:32N 51°31' E 001°32'0 0.1
2014-Sep-19 22:32N 51°31' E 001°31'0 0.1
2014-Sep-19 21:32N 51°31' E 001°31'0 0.0
2014-Sep-19 20:32N 51°31' E 001°31'0 0.0
2014-Sep-19 19:32N 51°31' E 001°31'0 0.0
2014-Sep-19 18:32N 51°31' E 001°31'0 0.0
2014-Sep-19 17:32N 51°31' E 001°31'0 0.0
2014-Sep-19 16:32N 51°31' E 001°31'0 0.0
2014-Sep-19 15:29N 51°31' E 001°31'0 0.1
2014-Sep-19 14:32N 51°31' E 001°31'0 0.1
2014-Sep-19 13:29N 51°31' E 001°32'0 0.0
2014-Sep-19 12:26N 51°31' E 001°32'0 0.1
2014-Sep-19 11:32N 51°31' E 001°32'0 0.1
2014-Sep-19 10:33N 51°31' E 001°31'5 5.1
2014-Sep-19 09:33N 51°26' E 001°29'1111.1
2014-Sep-19 08:33N 51°29' E 001°12'1111.3
2014-Sep-19 07:33N 51°29' E 000°54'1110.9
2014-Sep-19 06:33N 51°30' E 000°37'9 9.0
2014-Sep-19 05:33N 51°27' E 000°23'5 4.6
2014-Sep-19 04:33N 51°28' E 000°16'0 0.0
2014-Sep-19 03:34N 51°28' E 000°16'0 0.0
2014-Sep-19 02:34N 51°28' E 000°16'0 0.0
2014-Sep-19 01:33N 51°28' E 000°16'0 0.0
2014-Sep-19 00:33N 51°28' E 000°16'0 0.0
2014-Sep-18 23:33N 51°28' E 000°16'0 0.0
2014-Sep-18 22:33N 51°28' E 000°16'0 0.0
2014-Sep-18 21:34N 51°28' E 000°16'0 0.0
2014-Sep-18 20:34N 51°28' E 000°16'0 0.0
2014-Sep-18 19:34N 51°28' E 000°16'0 0.0
2014-Sep-18 18:34N 51°28' E 000°16'0 0.0
2014-Sep-18 17:33N 51°28' E 000°16'0 0.0
2014-Sep-18 16:31N 51°28' E 000°16'0 0.0
2014-Sep-18 15:31N 51°28' E 000°16'0 0.0
2014-Sep-18 14:34N 51°28' E 000°16'0 0.0
2014-Sep-18 13:34N 51°28' E 000°16'0 0.0
2014-Sep-18 12:34N 51°28' E 000°16'0 0.0
2014-Sep-18 11:34N 51°28' E 000°16'0 0.0
2014-Sep-18 10:34N 51°28' E 000°16'0 0.0
2014-Sep-18 09:34N 51°28' E 000°16'0 0.0
2014-Sep-18 08:34N 51°28' E 000°16'0 0.0
2014-Sep-18 07:31N 51°28' E 000°16'0 0.0
2014-Sep-18 06:34N 51°28' E 000°16'0 0.0
2014-Sep-18 05:33N 51°28' E 000°16'0 0.0
2014-Sep-18 04:33N 51°28' E 000°16'0 0.0
2014-Sep-18 03:33N 51°28' E 000°16'0 0.0
2014-Sep-18 02:33N 51°28' E 000°16'0 0.0
2014-Sep-18 01:33N 51°28' E 000°16'0 0.0
2014-Sep-18 00:33N 51°28' E 000°16'0 0.0
2014-Sep-17 23:33N 51°28' E 000°16'0 0.0
2014-Sep-17 22:33N 51°28' E 000°16'0 0.0
2014-Sep-17 21:33N 51°28' E 000°16'0 0.0
2014-Sep-17 20:34N 51°28' E 000°16'0 0.0
2014-Sep-17 19:33N 51°28' E 000°16'0 0.0
2014-Sep-17 18:33N 51°28' E 000°16'0 0.0
2014-Sep-17 17:33N 51°28' E 000°16'0 0.0
2014-Sep-17 16:33N 51°28' E 000°16'0 0.0
2014-Sep-17 15:33N 51°28' E 000°16'0 0.0
2014-Sep-17 14:34N 51°28' E 000°16'0 0.0
2014-Sep-17 13:33N 51°28' E 000°16'0 0.0
2014-Sep-17 12:33N 51°28' E 000°16'0 0.0
2014-Sep-17 11:34N 51°28' E 000°16'0 0.0
2014-Sep-17 10:34N 51°28' E 000°16'0 0.0
2014-Sep-17 09:33N 51°28' E 000°16'0 0.0
2014-Sep-17 08:33N 51°28' E 000°16'0 0.0
2014-Sep-17 07:33N 51°28' E 000°16'0 0.0
2014-Sep-17 06:33N 51°28' E 000°16'0 0.0
2014-Sep-17 05:33N 51°28' E 000°16'0 0.0
2014-Sep-17 04:34N 51°28' E 000°16'0 0.0
2014-Sep-17 03:33N 51°28' E 000°16'3 2.8
2014-Sep-17 02:33N 51°27' E 000°20'10 9.7
2014-Sep-17 01:33N 51°30' E 000°35'1212.5
2014-Sep-17 00:33N 51°29' E 000°55'1212.1
2014-Sep-16 23:33N 51°34' E 001°13'1212.1
2014-Sep-16 22:33N 51°42' E 001°28'1111.1
2014-Sep-16 21:33N 51°51' E 001°37'4 3.5
2014-Sep-16 20:33N 51°53' E 001°41'0 0.1
2014-Sep-16 19:33N 51°53' E 001°41'0 0.0
2014-Sep-16 18:33N 51°53' E 001°41'0 0.2
2014-Sep-16 17:33N 51°53' E 001°41'0 0.0
2014-Sep-16 16:33N 51°53' E 001°41'0 0.0
2014-Sep-16 15:33N 51°53' E 001°41'0 0.0
2014-Sep-16 14:33N 51°53' E 001°41'0 0.0
2014-Sep-16 13:33N 51°53' E 001°41'0 0.0
2014-Sep-16 12:33N 51°53' E 001°41'0 0.0
2014-Sep-16 11:33N 51°53' E 001°41'0 0.1
2014-Sep-16 10:33N 51°53' E 001°41'0 0.2
2014-Sep-16 09:33N 51°53' E 001°41'0 0.0
2014-Sep-16 08:34N 51°53' E 001°41'0 0.0
2014-Sep-16 07:33N 51°53' E 001°41'0 0.0
2014-Sep-16 06:33N 51°53' E 001°41'0 0.1
2014-Sep-16 05:33N 51°53' E 001°41'0 0.2
2014-Sep-16 04:33N 51°53' E 001°41'0 0.0
2014-Sep-16 03:33N 51°53' E 001°41'0 0.0
2014-Sep-16 02:33N 51°53' E 001°41'0 0.0
2014-Sep-16 01:33N 51°53' E 001°41'0 0.0
2014-Sep-16 00:33N 51°53' E 001°41'0 0.0
2014-Sep-15 23:34N 51°53' E 001°41'4 3.8
2014-Sep-15 22:33N 51°52' E 001°47'1010.4
2014-Sep-15 21:33N 51°53' E 002°04'1211.7
2014-Sep-15 20:33N 52°00' E 002°19'1111.3
2014-Sep-15 19:33N 52°08' E 002°32'1110.9
2014-Sep-15 18:33N 52°17' E 002°43'1111.4
2014-Sep-15 17:33N 52°27' E 002°51'41812.2
2014-Sep-14 07:16N 57°49' E 010°38'912.1
2014-Sep-14 06:33N 57°45' E 010°52'1312.9
2014-Sep-14 05:33N 57°36' E 011°09'1312.6
2014-Sep-14 04:33N 57°27' E 011°26'1312.7
2014-Sep-14 03:33N 57°15' E 011°34'1312.8
2014-Sep-14 02:33N 57°04' E 011°44'1312.4
2014-Sep-14 01:32N 56°52' E 011°51'13610.4
2014-Sep-13 12:32N 54°41' E 010°47'1212.3
2014-Sep-13 11:33N 54°36' E 011°06'1313.0
2014-Sep-13 10:33N 54°31' E 011°26'1212.3
2014-Sep-13 09:33N 54°27' E 011°46'1212.3
2014-Sep-13 08:33N 54°26' E 012°07'1211.0
2014-Sep-13 07:30N 54°36' E 012°17'2412.1
2014-Sep-13 05:33N 54°49' E 012°51'1212.4
2014-Sep-13 04:33N 54°54' E 013°11'1312.7
2014-Sep-13 03:33N 54°58' E 013°32'13912.2
2014-Sep-12 16:06N 55°55' E 017°16'812.4
2014-Sep-12 15:27N 55°57' E 017°30'27912.1
2014-Sep-11 16:26N 59°35' E 022°58'1112.8
2014-Sep-11 15:33N 59°38' E 023°19'1312.4
2014-Sep-11 14:33N 59°41' E 023°43'1312.5
2014-Sep-11 13:31N 59°45' E 024°08'1312.6
2014-Sep-11 12:32N 59°48' E 024°32'3012.5
2014-Sep-11 10:07N 59°54' E 025°30'1212.3
2014-Sep-11 09:07N 59°56' E 025°54'1912.4
2014-Sep-11 07:33N 60°01' E 026°32'  
Track history (hours):
 
Tides and Currents Weather Stations Pressure Air Temp Water Temp Dewpoint Dewpoint Depression Visibility Wind Speed Wind Dir Waves Ship Positions

Norient Star

Last reported at 2014-Sep-21 03:32 UTC. Time now 2014-Sep-21 04:10 UTC.
Position N 51°31' E 001°31'.

Length 180 m; draft 6.9 m.

Type: Ship. MMSI: 249434000.

Date/timePositionNaut miles runAvg speedWind from/ knotsBaromVisibWave heightAir tempDewpointWater temp
2014-Sep-21 03:32N 51°31' E 001°31'0 0.0
2014-Sep-21 02:32N 51°31' E 001°31'0 0.0
2014-Sep-21 01:32N 51°31' E 001°32'0 0.0
2014-Sep-21 00:32N 51°31' E 001°32'0 0.0
2014-Sep-20 23:32N 51°31' E 001°32'0 0.1
2014-Sep-20 22:32N 51°31' E 001°31'0 0.1
2014-Sep-20 21:32N 51°31' E 001°31'0 0.0
2014-Sep-20 20:32N 51°31' E 001°31'0 0.0
2014-Sep-20 19:32N 51°31' E 001°31'0 0.0
2014-Sep-20 18:32N 51°31' E 001°31'0 0.0
2014-Sep-20 17:32N 51°31' E 001°31'0 0.0
2014-Sep-20 16:32N 51°31' E 001°31'0 0.0
2014-Sep-20 15:32N 51°31' E 001°31'0 0.0
2014-Sep-20 14:32N 51°31' E 001°32'0 0.0
2014-Sep-20 13:32N 51°31' E 001°32'0 0.1
2014-Sep-20 12:32N 51°31' E 001°32'0 0.0
2014-Sep-20 11:32N 51°31' E 001°32'0 0.1
2014-Sep-20 10:32N 51°31' E 001°31'0 0.1
2014-Sep-20 09:32N 51°31' E 001°31'0 0.0
2014-Sep-20 08:32N 51°31' E 001°31'0 0.0
2014-Sep-20 07:32N 51°31' E 001°31'0 0.0
2014-Sep-20 06:32N 51°31' E 001°31'0 0.0
2014-Sep-20 05:32N 51°31' E 001°31'0 0.0
2014-Sep-20 04:30N 51°31' E 001°31'0 0.0
2014-Sep-20 03:32N 51°31' E 001°31'0 0.0
2014-Sep-20 02:32N 51°31' E 001°31'0 0.1
2014-Sep-20 01:26N 51°31' E 001°32'0 0.0
2014-Sep-20 00:32N 51°31' E 001°32'0 0.0
2014-Sep-19 23:32N 51°31' E 001°32'0 0.1
2014-Sep-19 22:32N 51°31' E 001°31'0 0.1
2014-Sep-19 21:32N 51°31' E 001°31'0 0.0
2014-Sep-19 20:32N 51°31' E 001°31'0 0.0
2014-Sep-19 19:32N 51°31' E 001°31'0 0.0
2014-Sep-19 18:32N 51°31' E 001°31'0 0.0
2014-Sep-19 17:32N 51°31' E 001°31'0 0.0
2014-Sep-19 16:32N 51°31' E 001°31'0 0.0
2014-Sep-19 15:29N 51°31' E 001°31'0 0.1
2014-Sep-19 14:32N 51°31' E 001°31'0 0.1
2014-Sep-19 13:29N 51°31' E 001°32'0 0.0
2014-Sep-19 12:26N 51°31' E 001°32'0 0.1
2014-Sep-19 11:32N 51°31' E 001°32'0 0.1
2014-Sep-19 10:33N 51°31' E 001°31'5 5.1
2014-Sep-19 09:33N 51°26' E 001°29'1111.1
2014-Sep-19 08:33N 51°29' E 001°12'1111.3
2014-Sep-19 07:33N 51°29' E 000°54'1110.9
2014-Sep-19 06:33N 51°30' E 000°37'9 9.0
2014-Sep-19 05:33N 51°27' E 000°23'5 4.6
2014-Sep-19 04:33N 51°28' E 000°16'0 0.0
2014-Sep-19 03:34N 51°28' E 000°16'0 0.0
2014-Sep-19 02:34N 51°28' E 000°16'0 0.0
2014-Sep-19 01:33N 51°28' E 000°16'0 0.0
2014-Sep-19 00:33N 51°28' E 000°16'0 0.0
2014-Sep-18 23:33N 51°28' E 000°16'0 0.0
2014-Sep-18 22:33N 51°28' E 000°16'0 0.0
2014-Sep-18 21:34N 51°28' E 000°16'0 0.0
2014-Sep-18 20:34N 51°28' E 000°16'0 0.0
2014-Sep-18 19:34N 51°28' E 000°16'0 0.0
2014-Sep-18 18:34N 51°28' E 000°16'0 0.0
2014-Sep-18 17:33N 51°28' E 000°16'0 0.0
2014-Sep-18 16:31N 51°28' E 000°16'0 0.0
2014-Sep-18 15:31N 51°28' E 000°16'0 0.0
2014-Sep-18 14:34N 51°28' E 000°16'0 0.0
2014-Sep-18 13:34N 51°28' E 000°16'0 0.0
2014-Sep-18 12:34N 51°28' E 000°16'0 0.0
2014-Sep-18 11:34N 51°28' E 000°16'0 0.0
2014-Sep-18 10:34N 51°28' E 000°16'0 0.0
2014-Sep-18 09:34N 51°28' E 000°16'0 0.0
2014-Sep-18 08:34N 51°28' E 000°16'0 0.0
2014-Sep-18 07:31N 51°28' E 000°16'0 0.0
2014-Sep-18 06:34N 51°28' E 000°16'0 0.0
2014-Sep-18 05:33N 51°28' E 000°16'0 0.0
2014-Sep-18 04:33N 51°28' E 000°16'0 0.0
2014-Sep-18 03:33N 51°28' E 000°16'0 0.0
2014-Sep-18 02:33N 51°28' E 000°16'0 0.0
2014-Sep-18 01:33N 51°28' E 000°16'0 0.0
2014-Sep-18 00:33N 51°28' E 000°16'0 0.0
2014-Sep-17 23:33N 51°28' E 000°16'0 0.0
2014-Sep-17 22:33N 51°28' E 000°16'0 0.0
2014-Sep-17 21:33N 51°28' E 000°16'0 0.0
2014-Sep-17 20:34N 51°28' E 000°16'0 0.0
2014-Sep-17 19:33N 51°28' E 000°16'0 0.0
2014-Sep-17 18:33N 51°28' E 000°16'0 0.0
2014-Sep-17 17:33N 51°28' E 000°16'0 0.0
2014-Sep-17 16:33N 51°28' E 000°16'0 0.0
2014-Sep-17 15:33N 51°28' E 000°16'0 0.0
2014-Sep-17 14:34N 51°28' E 000°16'0 0.0
2014-Sep-17 13:33N 51°28' E 000°16'0 0.0
2014-Sep-17 12:33N 51°28' E 000°16'0 0.0
2014-Sep-17 11:34N 51°28' E 000°16'0 0.0
2014-Sep-17 10:34N 51°28' E 000°16'0 0.0
2014-Sep-17 09:33N 51°28' E 000°16'0 0.0
2014-Sep-17 08:33N 51°28' E 000°16'0 0.0
2014-Sep-17 07:33N 51°28' E 000°16'0 0.0
2014-Sep-17 06:33N 51°28' E 000°16'0 0.0
2014-Sep-17 05:33N 51°28' E 000°16'0 0.0
2014-Sep-17 04:34N 51°28' E 000°16'0 0.0
2014-Sep-17 03:33N 51°28' E 000°16'3 2.8
2014-Sep-17 02:33N 51°27' E 000°20'10 9.7
2014-Sep-17 01:33N 51°30' E 000°35'1212.5
2014-Sep-17 00:33N 51°29' E 000°55'1212.1
2014-Sep-16 23:33N 51°34' E 001°13'1212.1
2014-Sep-16 22:33N 51°42' E 001°28'1111.1
2014-Sep-16 21:33N 51°51' E 001°37'4 3.5
2014-Sep-16 20:33N 51°53' E 001°41'0 0.1
2014-Sep-16 19:33N 51°53' E 001°41'0 0.0
2014-Sep-16 18:33N 51°53' E 001°41'0 0.2
2014-Sep-16 17:33N 51°53' E 001°41'0 0.0
2014-Sep-16 16:33N 51°53' E 001°41'0 0.0
2014-Sep-16 15:33N 51°53' E 001°41'0 0.0
2014-Sep-16 14:33N 51°53' E 001°41'0 0.0
2014-Sep-16 13:33N 51°53' E 001°41'0 0.0
2014-Sep-16 12:33N 51°53' E 001°41'0 0.0
2014-Sep-16 11:33N 51°53' E 001°41'0 0.1
2014-Sep-16 10:33N 51°53' E 001°41'0 0.2
2014-Sep-16 09:33N 51°53' E 001°41'0 0.0
2014-Sep-16 08:34N 51°53' E 001°41'0 0.0
2014-Sep-16 07:33N 51°53' E 001°41'0 0.0
2014-Sep-16 06:33N 51°53' E 001°41'0 0.1
2014-Sep-16 05:33N 51°53' E 001°41'0 0.2
2014-Sep-16 04:33N 51°53' E 001°41'0 0.0
2014-Sep-16 03:33N 51°53' E 001°41'0 0.0
2014-Sep-16 02:33N 51°53' E 001°41'0 0.0
2014-Sep-16 01:33N 51°53' E 001°41'0 0.0
2014-Sep-16 00:33N 51°53' E 001°41'0 0.0
2014-Sep-15 23:34N 51°53' E 001°41'4 3.8
2014-Sep-15 22:33N 51°52' E 001°47'1010.4
2014-Sep-15 21:33N 51°53' E 002°04'1211.7
2014-Sep-15 20:33N 52°00' E 002°19'1111.3
2014-Sep-15 19:33N 52°08' E 002°32'1110.9
2014-Sep-15 18:33N 52°17' E 002°43'1111.4
2014-Sep-15 17:33N 52°27' E 002°51'41812.2
2014-Sep-14 07:16N 57°49' E 010°38'912.1
2014-Sep-14 06:33N 57°45' E 010°52'1312.9
2014-Sep-14 05:33N 57°36' E 011°09'1312.6
2014-Sep-14 04:33N 57°27' E 011°26'1312.7
2014-Sep-14 03:33N 57°15' E 011°34'1312.8
2014-Sep-14 02:33N 57°04' E 011°44'1312.4
2014-Sep-14 01:32N 56°52' E 011°51'13610.4
2014-Sep-13 12:32N 54°41' E 010°47'1212.3
2014-Sep-13 11:33N 54°36' E 011°06'1313.0
2014-Sep-13 10:33N 54°31' E 011°26'1212.3
2014-Sep-13 09:33N 54°27' E 011°46'1212.3
2014-Sep-13 08:33N 54°26' E 012°07'1211.0
2014-Sep-13 07:30N 54°36' E 012°17'2412.1
2014-Sep-13 05:33N 54°49' E 012°51'1212.4
2014-Sep-13 04:33N 54°54' E 013°11'1312.7
2014-Sep-13 03:33N 54°58' E 013°32'13912.2
2014-Sep-12 16:06N 55°55' E 017°16'812.4
2014-Sep-12 15:27N 55°57' E 017°30'27912.1
2014-Sep-11 16:26N 59°35' E 022°58'1112.8
2014-Sep-11 15:33N 59°38' E 023°19'1312.4
2014-Sep-11 14:33N 59°41' E 023°43'1312.5
2014-Sep-11 13:31N 59°45' E 024°08'1312.6
2014-Sep-11 12:32N 59°48' E 024°32'3012.5
2014-Sep-11 10:07N 59°54' E 025°30'1212.3
2014-Sep-11 09:07N 59°56' E 025°54'1912.4
2014-Sep-11 07:33N 60°01' E 026°32'  

Dump ship's entire track history